createdAt,value
2018-06-22T03:37:38.839Z,15.4
2018-06-22T03:38:28.669Z,15.5
2018-06-22T03:39:18.967Z,15.6
2018-06-22T03:40:08.206Z,15.6
2018-06-22T03:40:58.543Z,15.7
2018-06-22T03:41:49.173Z,15.7
2018-06-22T03:42:38.673Z,15.8
2018-06-22T03:43:28.712Z,15.9
2018-06-22T03:44:19.057Z,15.9
2018-06-22T03:45:09.387Z,16
2018-06-22T03:45:59.193Z,16
2018-06-22T03:46:49.580Z,16
2018-06-22T03:47:39.305Z,16
2018-06-22T03:48:29.400Z,16
2018-06-22T03:49:19.447Z,16.1
2018-06-22T03:50:09.243Z,16.1
2018-06-22T03:50:59.288Z,16.1
2018-06-22T03:51:49.350Z,16.1
2018-06-22T03:52:39.984Z,16.1
2018-06-22T03:53:29.769Z,16.2
2018-06-22T03:54:20.101Z,16.3
2018-06-22T03:55:10.166Z,16.4
2018-06-22T03:55:59.667Z,16.4
2018-06-22T03:56:50.360Z,16.5
2018-06-22T03:57:39.507Z,16.6
2018-06-22T03:58:30.192Z,16.6
2018-06-22T03:59:20.458Z,16.7
2018-06-22T04:00:10.277Z,16.7
2018-06-22T04:01:00.320Z,16.8
2018-06-22T04:01:50.441Z,16.8
2018-06-22T04:02:40.751Z,16.8
2018-06-22T04:03:30.031Z,16.7
2018-06-22T04:04:20.596Z,16.8
2018-06-22T04:05:10.076Z,16.8
2018-06-22T04:06:00.729Z,16.8
2018-06-22T04:06:50.786Z,16.9
2018-06-22T04:07:41.139Z,16.8
2018-06-22T04:08:31.194Z,16.8
2018-06-22T04:09:20.751Z,16.8
2018-06-22T04:10:10.740Z,16.8
2018-06-22T04:11:01.405Z,16.8
2018-06-22T04:11:51.173Z,16.7
2018-06-22T04:12:41.274Z,16.6
2018-06-22T04:13:31.588Z,16.7
2018-06-22T04:14:21.157Z,16.8
2018-06-22T04:15:11.686Z,16.9
2018-06-22T04:16:01.778Z,16.9
2018-06-22T04:19:21.747Z,16.9
2018-06-22T04:21:01.589Z,17.1
2018-06-22T04:21:51.914Z,17.1
2018-06-22T04:22:41.735Z,17.2
2018-06-22T04:23:31.771Z,17.3
2018-06-22T04:24:22.049Z,17.3
2018-06-22T04:25:12.507Z,17.4
2018-06-22T04:26:02.556Z,17.5
2018-06-22T04:26:52.300Z,17.4
2018-06-22T04:27:42.634Z,17.3
2018-06-22T04:28:32.722Z,17.3
2018-06-22T04:29:22.773Z,17.3
2018-06-22T04:30:12.301Z,17.2
2018-06-22T04:31:02.665Z,17.2
2018-06-22T04:31:52.985Z,17.1
2018-06-22T04:32:42.771Z,17.3
2018-06-22T04:33:33.116Z,17.3
2018-06-22T04:34:22.930Z,17.5
2018-06-22T04:35:12.196Z,17.6
2018-06-22T04:36:03.329Z,17.5
2018-06-22T04:36:53.403Z,17.5
2018-06-22T04:37:43.439Z,17.5
2018-06-22T04:38:33.348Z,17.6
2018-06-22T04:39:23.263Z,17.5
2018-06-22T04:40:13.322Z,17.5
2018-06-22T04:41:02.847Z,17.5
2018-06-22T04:41:53.476Z,17.5
2018-06-22T04:42:42.960Z,17.4
2018-06-22T04:43:33.583Z,17.4
2018-06-22T04:44:23.953Z,17.6
2018-06-22T04:45:13.743Z,17.7
2018-06-22T04:46:04.105Z,17.8
2018-06-22T04:46:53.852Z,17.8
2018-06-22T04:47:44.623Z,17.9
2018-06-22T04:48:33.428Z,17.9
2018-06-22T04:49:24.308Z,17.9
2018-06-22T04:50:14.431Z,18.1
2018-06-22T04:51:04.178Z,18.3
2018-06-22T04:51:54.263Z,18.2
2018-06-22T04:52:43.631Z,18.3
2018-06-22T04:53:34.420Z,18.4
2018-06-22T04:54:24.745Z,18.4
2018-06-22T04:55:14.775Z,18.3
2018-06-22T04:56:04.560Z,18.3
2018-06-22T04:56:54.602Z,18.3
2018-06-22T04:57:44.686Z,18.4
2018-06-22T04:58:35.005Z,18.4
2018-06-22T04:59:25.078Z,18.2
2018-06-22T05:00:14.880Z,18.1
2018-06-22T05:01:05.218Z,18.1
2018-06-22T05:01:55.284Z,18.3
2018-06-22T05:02:44.847Z,18.3
2018-06-22T05:03:35.702Z,18.3
2018-06-22T05:04:25.201Z,18.3
2018-06-22T05:05:15.589Z,18.3
2018-06-22T05:06:05.650Z,18.4
2018-06-22T05:06:55.146Z,18.3
2018-06-22T05:07:45.750Z,18.3
2018-06-22T05:08:35.819Z,18.4
2018-06-22T05:09:26.411Z,18.6
2018-06-22T05:10:15.701Z,18.6
2018-06-22T05:11:05.442Z,18.8
2018-06-22T05:11:56.064Z,19
2018-06-22T05:12:45.874Z,19.2
2018-06-22T05:13:36.195Z,19.4
2018-06-22T05:14:26.266Z,19.4
2018-06-22T05:15:16.030Z,19.5
2018-06-22T05:16:06.113Z,19.6
2018-06-22T05:16:56.200Z,19.7
2018-06-22T05:17:46.259Z,19.6
2018-06-22T05:18:36.302Z,19.6
2018-06-22T05:19:26.648Z,19.6
2018-06-22T05:20:16.713Z,19.6
2018-06-22T05:21:06.507Z,19.6
2018-06-22T05:21:56.844Z,19.6
2018-06-22T05:22:47.555Z,19.5
2018-06-22T05:23:36.970Z,19.6
2018-06-22T05:24:27.038Z,19.5
2018-06-22T05:25:17.166Z,19.6
2018-06-22T05:26:07.167Z,19.7
2018-06-22T05:26:56.368Z,19.9
2018-06-22T05:27:47.045Z,20.1
2018-06-22T05:28:37.086Z,20.3
2018-06-22T05:29:27.116Z,20.4
2018-06-22T05:30:17.751Z,20.4
2018-06-22T05:31:07.270Z,20.4
2018-06-22T05:31:57.344Z,20.5
2018-06-22T05:32:47.672Z,20.6
2018-06-22T05:33:37.459Z,20.6
2018-06-22T05:34:27.493Z,20.6
2018-06-22T05:35:17.589Z,20.6
2018-06-22T05:36:07.466Z,20.4
2018-06-22T05:36:58.053Z,20.6
2018-06-22T05:37:47.500Z,20.7
2018-06-22T05:38:38.129Z,20.7
2018-06-22T05:39:27.692Z,20.7
2018-06-22T05:40:18.245Z,20.8
2018-06-22T05:41:08.331Z,20.8
2018-06-22T05:41:58.092Z,20.9
2018-06-22T05:42:48.433Z,20.9
2018-06-22T05:43:38.222Z,21
2018-06-22T05:44:28.308Z,21.1
2018-06-22T05:45:18.328Z,20.9
2018-06-22T05:46:07.850Z,20.9
2018-06-22T05:46:58.741Z,21
2018-06-22T05:47:48.556Z,21.1
2018-06-22T05:48:38.328Z,21.1
2018-06-22T05:50:19.028Z,21.1
2018-06-22T05:51:08.539Z,21
2018-06-22T05:51:59.181Z,20.9
2018-06-22T05:52:48.669Z,21
2018-06-22T05:53:39.304Z,21.1
2018-06-22T05:56:09.507Z,21.2
2018-06-22T05:56:59.530Z,21.4
2018-06-22T05:57:49.302Z,21.6
2018-06-22T05:58:39.676Z,21.6
2018-06-22T05:59:29.162Z,21.6
2018-06-22T06:00:19.502Z,21.7
2018-06-22T06:01:09.852Z,21.6
2018-06-22T06:01:59.686Z,21.6
2018-06-22T06:02:49.973Z,21.7
2018-06-22T06:03:40.633Z,21.7
2018-06-22T06:04:29.309Z,21.7
2018-06-22T06:05:20.173Z,21.8
2018-06-22T06:06:09.947Z,21.8
2018-06-22T06:07:00.325Z,21.9
2018-06-22T06:07:50.371Z,22
2018-06-22T06:08:40.171Z,22.1
2018-06-22T06:09:30.475Z,22.3
2018-06-22T06:10:20.284Z,22.3
2018-06-22T06:11:10.945Z,22.1
2018-06-22T06:12:00.669Z,22.2
2018-06-22T06:12:50.740Z,22.3
2018-06-22T06:13:40.537Z,22.4
2018-06-22T06:14:30.107Z,22.4
2018-06-22T06:15:20.940Z,22.5
2018-06-22T06:16:10.990Z,22.4
2018-06-22T06:17:01.144Z,22
2018-06-22T06:17:51.102Z,21.9
2018-06-22T06:18:41.404Z,22.1
2018-06-22T06:19:31.011Z,22.5
2018-06-22T06:20:20.572Z,22.4
2018-06-22T06:21:11.100Z,22.3
2018-06-22T06:22:00.886Z,22.6
2018-06-22T06:22:51.556Z,22.7
2018-06-22T06:23:41.602Z,22.9
2018-06-22T06:24:31.392Z,22.8
2018-06-22T06:25:21.720Z,22.8
2018-06-22T06:26:11.489Z,22.8
2018-06-22T06:27:01.565Z,22.8
2018-06-22T06:27:51.944Z,23
2018-06-22T06:28:41.427Z,23.1
2018-06-22T06:29:32.017Z,23
2018-06-22T06:30:22.124Z,23
2018-06-22T06:31:11.905Z,23.2
2018-06-22T06:32:02.001Z,23.3
2018-06-22T06:32:52.321Z,23.5
2018-06-22T06:33:42.360Z,23.7
2018-06-22T06:34:32.475Z,23.8
2018-06-22T06:35:22.210Z,23.6
2018-06-22T06:36:12.548Z,23.7
2018-06-22T06:37:02.329Z,23.5
2018-06-22T06:37:52.407Z,23.2
2018-06-22T06:38:42.725Z,22.6
2018-06-22T06:39:32.857Z,22.9
2018-06-22T06:40:22.941Z,23.2
2018-06-22T06:41:12.932Z,23.3
2018-06-22T06:42:01.975Z,23.4
2018-06-22T06:42:52.777Z,23.5
2018-06-22T06:43:42.267Z,23.6
2018-06-22T06:44:33.214Z,23.8
2018-06-22T06:45:22.979Z,23.9
2018-06-22T06:46:13.351Z,23.8
2018-06-22T06:47:03.126Z,23.9
2018-06-22T06:47:53.437Z,24
2018-06-22T06:48:42.950Z,23.9
2018-06-22T06:49:33.639Z,23.8
2018-06-22T06:50:23.367Z,23.9
2018-06-22T06:51:13.709Z,24
2018-06-22T06:52:03.778Z,24.1
2018-06-22T06:52:53.826Z,24.3
2018-06-22T06:53:43.333Z,24.3
2018-06-22T06:54:33.702Z,24.3
2018-06-22T06:55:23.747Z,24.3
2018-06-22T06:56:14.125Z,24.4
2018-06-22T06:57:03.636Z,24.4
2018-06-22T06:57:53.705Z,24.6
2018-06-22T06:58:44.287Z,24.7
2018-06-22T06:59:34.411Z,24.6
2018-06-22T07:00:24.428Z,23.9
2018-06-22T07:01:14.194Z,24
2018-06-22T07:02:04.595Z,24.4
2018-06-22T07:02:54.037Z,24.6
2018-06-22T07:03:44.119Z,24.5
2018-06-22T07:04:34.461Z,24.6
2018-06-22T07:05:24.536Z,24.6
2018-06-22T07:06:14.398Z,24.7
2018-06-22T07:07:04.980Z,24.8
2018-06-22T07:07:55.085Z,24.8
2018-06-22T07:08:44.786Z,24.8
2018-06-22T07:09:35.130Z,24.7
2018-06-22T07:10:25.221Z,24.9
2018-06-22T07:11:15.305Z,25.3
2018-06-22T07:12:05.335Z,25.4
2018-06-22T07:12:55.398Z,25.1
2018-06-22T07:13:45.170Z,25.2
2018-06-22T07:14:35.532Z,25.2
2018-06-22T07:15:25.593Z,25.4
2018-06-22T07:16:15.647Z,25.4
2018-06-22T07:17:05.524Z,25.5
2018-06-22T07:17:55.791Z,25.1
2018-06-22T07:18:45.866Z,25
2018-06-22T07:19:35.642Z,25.6
2018-06-22T07:20:25.984Z,25.4
2018-06-22T07:21:16.047Z,25.6
2018-06-22T07:22:06.120Z,25.8
2018-06-22T07:22:55.594Z,26
2018-06-22T07:23:46.283Z,25.9
2018-06-22T07:24:36.047Z,26.3
2018-06-22T07:25:25.809Z,26.3
2018-06-22T07:26:15.845Z,26.3
2018-06-22T07:27:06.021Z,26.1
2018-06-22T07:27:56.287Z,25.9
2018-06-22T07:28:46.616Z,26.1
2018-06-22T07:29:36.410Z,25.9
2018-06-22T07:30:26.493Z,26
2018-06-22T07:31:16.839Z,25.9
2018-06-22T07:32:06.929Z,26.1
2018-06-22T07:32:56.378Z,26.3
2018-06-22T07:33:47.006Z,26.6
2018-06-22T07:34:36.818Z,26.5
2018-06-22T07:35:26.910Z,25.8
2018-06-22T07:36:16.958Z,25.6
2018-06-22T07:37:07.301Z,25.2
2018-06-22T07:37:56.769Z,25.2
2018-06-22T07:38:47.442Z,25.4
2018-06-22T07:39:36.905Z,25.4
2018-06-22T07:40:27.538Z,25.6
2018-06-22T07:41:16.858Z,24.6
2018-06-22T07:42:07.666Z,24.2
2018-06-22T07:42:57.786Z,24.3
2018-06-22T07:43:47.558Z,24.4
2018-06-22T07:44:37.556Z,24.8
2018-06-22T07:45:27.158Z,25.6
2018-06-22T07:46:17.986Z,26
2018-06-22T07:47:08.068Z,26.3
2018-06-22T07:47:58.111Z,25.9
2018-06-22T07:48:48.160Z,25.9
2018-06-22T07:49:37.976Z,26.3
2018-06-22T07:50:28.021Z,26.1
2018-06-22T07:51:17.823Z,25.8
2018-06-22T07:52:08.428Z,26.1
2018-06-22T07:52:58.236Z,26.3
2018-06-22T07:53:48.279Z,26.9
2018-06-22T07:54:38.064Z,27.1
2018-06-22T07:55:28.124Z,27.3
2018-06-22T07:56:18.763Z,26.6
2018-06-22T07:57:08.929Z,26.4
2018-06-22T07:57:58.905Z,25.8
2018-06-22T07:58:48.953Z,25.9
2018-06-22T07:59:39.042Z,26.3
2018-06-22T08:00:29.127Z,26.3
2018-06-22T08:01:19.140Z,26.3
2018-06-22T08:02:09.202Z,26.6
2018-06-22T08:02:59.267Z,26.7
2018-06-22T08:03:49.049Z,26.6
2018-06-22T08:04:39.407Z,26.7
2018-06-22T08:05:29.464Z,26.6
2018-06-22T08:06:19.724Z,26.9
2018-06-22T08:07:09.598Z,27.3
2018-06-22T08:07:59.644Z,27.4
2018-06-22T08:08:49.734Z,27.6
2018-06-22T08:09:39.606Z,27.4
2018-06-22T08:10:29.856Z,27.3
2018-06-22T08:11:19.636Z,27.3
2018-06-22T08:12:09.452Z,26.9
2018-06-22T08:13:00.070Z,26.8
2018-06-22T08:13:49.850Z,26.8
2018-06-22T08:14:40.179Z,26.6
2018-06-22T08:15:29.976Z,26.8
2018-06-22T08:16:20.318Z,27.1
2018-06-22T08:17:10.366Z,27.1
2018-06-22T08:18:00.419Z,27
2018-06-22T08:18:50.575Z,27.6
2018-06-22T08:19:40.553Z,28
2018-06-22T08:20:30.356Z,28.4
2018-06-22T08:21:20.752Z,28.3
2018-06-22T08:22:10.771Z,28.1
2018-06-22T08:23:00.576Z,28
2018-06-22T08:23:50.900Z,28.3
2018-06-22T08:24:40.471Z,28.8
2018-06-22T08:25:31.031Z,28.3
2018-06-22T08:27:11.156Z,28.3
2018-06-22T08:28:01.237Z,28.6
2018-06-22T08:28:50.994Z,28.8
2018-06-22T08:29:40.772Z,29
2018-06-22T08:30:31.398Z,29
2018-06-22T08:31:21.476Z,29.1
2018-06-22T08:32:11.276Z,29.5
2018-06-22T08:33:01.330Z,29.4
2018-06-22T08:33:51.206Z,29.2
2018-06-22T08:34:41.474Z,29.1
2018-06-22T08:35:31.525Z,29.3
2018-06-22T08:36:21.868Z,29.2
2018-06-22T08:37:11.660Z,29.4
2018-06-22T08:38:01.243Z,28.8
2018-06-22T08:38:51.800Z,28.8
2018-06-22T08:39:41.871Z,28.8
2018-06-22T08:40:32.209Z,29.1
2018-06-22T08:41:21.973Z,29.6
2018-06-22T08:42:12.263Z,29.8
2018-06-22T08:43:02.120Z,29.7
2018-06-22T08:43:52.470Z,29.6
2018-06-22T08:44:42.500Z,28.9
2018-06-22T08:45:32.586Z,29.1
2018-06-22T08:46:22.101Z,28.9
2018-06-22T08:47:12.743Z,29.3
2018-06-22T08:48:02.796Z,28.8
2018-06-22T08:48:52.896Z,28.5
2018-06-22T08:49:42.695Z,28.2
2018-06-22T08:50:32.682Z,28
2018-06-22T08:51:22.504Z,28
2018-06-22T08:52:12.815Z,28.2
2018-06-22T08:53:03.179Z,28
2018-06-22T08:53:53.247Z,27.9
2018-06-22T08:54:43.003Z,28.1
2018-06-22T08:55:33.076Z,27.5
2018-06-22T08:56:23.437Z,27.4
2018-06-22T08:57:13.225Z,27.6
2018-06-22T08:58:03.349Z,28.1
2018-06-22T08:58:53.610Z,28.8
2018-06-22T08:59:43.709Z,29.6
2018-06-22T09:00:33.471Z,29.8
2018-06-22T09:01:24.776Z,29.4
2018-06-22T09:02:13.900Z,29.7
2018-06-22T09:03:03.773Z,30.2
2018-06-22T09:03:54.010Z,30
2018-06-22T09:04:43.832Z,30.2
2018-06-22T09:05:34.161Z,30.7
2018-06-22T09:06:23.640Z,30.9
2018-06-22T09:07:13.716Z,30.8
2018-06-22T09:08:04.333Z,30.9
2018-06-22T09:08:54.396Z,30.2
2018-06-22T09:09:43.914Z,30.2
2018-06-22T09:10:34.518Z,30.4
2018-06-22T09:11:24.039Z,30.3
2018-06-22T09:12:14.656Z,30.2
2018-06-22T09:13:04.716Z,30.5
2018-06-22T09:13:54.800Z,30.9
2018-06-22T09:14:44.585Z,30.8
2018-06-22T09:15:34.929Z,30.6
2018-06-22T09:16:24.445Z,30.6
2018-06-22T09:17:14.769Z,30.9
2018-06-22T09:18:04.573Z,30.6
2018-06-22T09:18:54.910Z,30.6
2018-06-22T09:19:44.981Z,30.6
2018-06-22T09:20:35.338Z,30.6
2018-06-22T09:21:24.829Z,30.3
2018-06-22T09:22:15.171Z,30.1
2018-06-22T09:23:04.970Z,30.2
2018-06-22T09:23:55.559Z,30.4
2018-06-22T09:24:45.364Z,29.6
2018-06-22T09:25:35.702Z,29.6
2018-06-22T09:26:25.483Z,29.7
2018-06-22T09:27:15.562Z,30.4
2018-06-22T09:28:05.610Z,30.3
2018-06-22T09:28:55.710Z,30.3
2018-06-22T09:29:46.073Z,30.5
2018-06-22T09:30:35.562Z,30.5
2018-06-22T09:31:26.343Z,30.9
2018-06-22T09:32:15.696Z,31.5
2018-06-22T09:33:06.332Z,31.6
2018-06-22T09:33:56.412Z,31.7
2018-06-22T09:34:46.148Z,32
2018-06-22T09:35:36.529Z,32.1
2018-06-22T09:36:26.602Z,32.1
2018-06-22T09:37:16.646Z,32.4
2018-06-22T09:38:05.953Z,32.1
2018-06-22T09:38:56.786Z,32
2018-06-22T09:39:46.830Z,31.8
2018-06-22T09:40:36.906Z,31.5
2018-06-22T09:41:26.971Z,30.3
2018-06-22T09:42:17.012Z,29.9
2018-06-22T09:43:07.098Z,29.5
2018-06-22T09:43:56.593Z,29.6
2018-06-22T09:44:46.909Z,29.6
2018-06-22T09:45:37.037Z,29.3
2018-06-22T09:46:26.294Z,29.3
2018-06-22T09:47:17.121Z,29.8
2018-06-22T09:48:06.639Z,30.1
2018-06-22T09:48:56.997Z,30.2
2018-06-22T09:49:47.045Z,29.7
2018-06-22T09:50:37.128Z,30.1
2018-06-22T09:51:27.473Z,30.1
2018-06-22T09:52:17.798Z,29.6
2018-06-22T09:53:08.020Z,29.4
2018-06-22T09:53:57.659Z,29.9
2018-06-22T09:54:47.971Z,30.9
2018-06-22T09:55:37.487Z,31.5
2018-06-22T09:56:28.113Z,31.8
2018-06-22T09:57:17.903Z,32.2
2018-06-22T09:58:08.253Z,32.8
2018-06-22T09:58:58.057Z,32.9
2018-06-22T09:59:48.120Z,33.3
2018-06-22T10:00:38.188Z,33.1
2018-06-22T10:01:28.260Z,32.9
2018-06-22T10:02:19.023Z,32.5
2018-06-22T10:03:08.366Z,31.8
2018-06-22T10:03:58.452Z,32
2018-06-22T10:04:49.148Z,32.6
2018-06-22T10:05:38.044Z,32.6
2018-06-22T10:06:28.650Z,32.3
2018-06-22T10:07:18.982Z,32.2
2018-06-22T10:08:08.903Z,31.6
2018-06-22T10:08:59.082Z,31.2
2018-06-22T10:09:49.168Z,31.8
2018-06-22T10:10:39.207Z,32.1
2018-06-22T10:11:29.843Z,31.8
2018-06-22T10:12:19.049Z,31.3
2018-06-22T10:13:09.393Z,31.2
2018-06-22T10:13:59.458Z,31.2
2018-06-22T10:14:49.535Z,31.1
2018-06-22T10:15:39.597Z,31.4
2018-06-22T10:16:29.701Z,31.6
2018-06-22T10:17:19.772Z,31
2018-06-22T10:18:09.791Z,30.8
2018-06-22T10:18:59.895Z,31.5
2018-06-22T10:19:49.651Z,31.2
2018-06-22T10:20:40.028Z,31
2018-06-22T10:21:30.062Z,30.1
2018-06-22T10:22:19.883Z,30.4
2018-06-22T10:23:09.628Z,30.7
2018-06-22T10:23:59.732Z,31.1
2018-06-22T10:24:50.042Z,30.6
2018-06-22T10:25:40.387Z,30.6
2018-06-22T10:26:30.208Z,30.8
2018-06-22T10:27:20.540Z,31.1
2018-06-22T10:28:10.593Z,30.7
2018-06-22T10:29:00.115Z,31.1
2018-06-22T10:29:50.722Z,31.5
2018-06-22T10:30:40.212Z,31.9
2018-06-22T10:31:30.877Z,32.3
2018-06-22T10:32:20.914Z,32.2
2018-06-22T10:33:10.397Z,32.3
2018-06-22T10:34:01.264Z,32.1
2018-06-22T10:34:50.821Z,31.9
2018-06-22T10:35:40.896Z,31.8
2018-06-22T10:36:31.220Z,31.3
2018-06-22T10:37:21.332Z,31.4
2018-06-22T10:38:11.104Z,31.9
2018-06-22T10:39:00.854Z,32.1
2018-06-22T10:39:51.200Z,32.5
2018-06-22T10:40:41.573Z,32.7
2018-06-22T10:41:31.659Z,33
2018-06-22T10:42:21.698Z,33.4
2018-06-22T10:43:11.490Z,33.3
2018-06-22T10:44:01.834Z,33.8
2018-06-22T10:44:51.908Z,33.5
2018-06-22T10:45:41.919Z,33.3
2018-06-22T10:46:32.017Z,32.8
2018-06-22T10:47:22.106Z,32.6
2018-06-22T10:48:11.881Z,32.4
2018-06-22T10:49:02.235Z,32.1
2018-06-22T10:49:51.712Z,32.1
2018-06-22T10:50:42.094Z,31.8
2018-06-22T10:51:32.780Z,31.7
2018-06-22T10:52:21.907Z,31.6
2018-06-22T10:53:12.277Z,31.8
2018-06-22T10:54:02.325Z,31.9
2018-06-22T10:54:52.103Z,31.6
2018-06-22T10:55:42.165Z,31.3
2018-06-22T10:56:32.819Z,31.3
2018-06-22T10:57:22.595Z,30.9
2018-06-22T10:58:12.482Z,30.8
2018-06-22T10:59:02.980Z,30.8
2018-06-22T10:59:53.271Z,30.8
2018-06-22T11:00:43.118Z,30.6
2018-06-22T11:01:32.906Z,30.4
2018-06-22T11:02:23.246Z,30.5
2018-06-22T11:03:13.045Z,30.5
2018-06-22T11:04:03.380Z,30.2
2018-06-22T11:04:53.162Z,29.7
2018-06-22T11:05:43.793Z,29.8
2018-06-22T11:06:33.559Z,29.8
2018-06-22T11:07:23.350Z,29.8
2018-06-22T11:08:13.701Z,29.6
2018-06-22T11:09:03.785Z,29.6
2018-06-22T11:09:53.848Z,29.7
2018-06-22T11:10:43.890Z,29.6
2018-06-22T11:11:33.968Z,29.4
2018-06-22T11:12:23.749Z,29.3
2018-06-22T11:13:13.259Z,29.3
2018-06-22T11:14:05.076Z,29.1
2018-06-22T11:14:54.240Z,28.8
2018-06-22T11:15:44.364Z,27.3
2018-06-22T11:16:34.418Z,26.7
2018-06-22T11:17:24.728Z,26.4
2018-06-22T11:18:14.681Z,26.3
2018-06-22T11:19:04.610Z,26.2
2018-06-22T11:19:54.340Z,26.1
2018-06-22T11:20:44.707Z,25.6
2018-06-22T11:21:34.502Z,23.8
2018-06-22T11:22:24.271Z,23.3
2018-06-22T11:23:14.329Z,22.8
2018-06-22T11:24:04.940Z,22.4
2018-06-22T11:24:55.218Z,22.2
2018-06-22T11:25:45.125Z,22.1
2018-06-22T11:26:34.872Z,22.1
2018-06-22T11:27:24.628Z,22
2018-06-22T11:28:15.294Z,22
2018-06-22T11:29:05.088Z,21.9
2018-06-22T11:29:55.439Z,21.8
2018-06-22T11:30:45.721Z,21.8
2018-06-22T11:31:34.974Z,21.7
2018-06-22T11:32:25.580Z,21.4
2018-06-22T11:33:15.395Z,21.1
2018-06-22T11:34:05.744Z,20.9
2018-06-22T11:34:55.513Z,20.9
2018-06-22T11:35:46.289Z,20.9
2018-06-22T11:36:35.910Z,21
2018-06-22T11:37:26.007Z,20.9
2018-06-22T11:38:16.029Z,20.8
2018-06-22T11:39:05.815Z,20.8
2018-06-22T11:39:56.177Z,20.6
2018-06-22T11:40:46.239Z,20.6
2018-06-22T11:41:36.309Z,20.3
2018-06-22T11:42:26.085Z,20.3
2018-06-22T11:43:16.139Z,20.1
2018-06-22T11:44:06.231Z,19.9
2018-06-22T11:44:56.283Z,19.7
2018-06-22T11:45:46.630Z,19.7
2018-06-22T11:46:36.688Z,19.7
2018-06-22T11:47:26.546Z,19.6
2018-06-22T11:48:16.824Z,19.5
2018-06-22T11:49:06.592Z,19.4
2018-06-22T11:49:56.968Z,19.1
2018-06-22T11:50:46.759Z,18.9
2018-06-22T11:51:36.540Z,18.8
2018-06-22T11:52:27.139Z,18.6
2018-06-22T11:53:16.653Z,18.6
2018-06-22T11:54:07.272Z,18.6
2018-06-22T11:54:57.311Z,18.8
2018-06-22T11:55:47.107Z,19
2018-06-22T11:56:37.190Z,19
2018-06-22T11:57:26.988Z,19.2
2018-06-22T11:58:17.592Z,19.4
2018-06-22T11:59:08.114Z,19.4
2018-06-22T11:59:57.717Z,19.5
2018-06-22T12:00:47.818Z,19.5
2018-06-22T12:01:38.038Z,19.7
2018-06-22T12:02:27.610Z,19.7
2018-06-22T12:03:17.977Z,19.8
2018-06-22T12:04:08.127Z,19.8
2018-06-22T12:04:58.106Z,19.8
2018-06-22T12:05:47.894Z,19.8
2018-06-22T12:06:38.263Z,19.8
2018-06-22T12:07:28.336Z,19.8
2018-06-22T12:08:18.360Z,19.7
2018-06-22T12:09:07.875Z,19.7
2018-06-22T12:09:58.505Z,19.6
2018-06-22T12:10:48.565Z,19.4
2018-06-22T12:11:38.365Z,19.1
2018-06-22T12:12:28.691Z,19
2018-06-22T12:13:18.500Z,18.9
2018-06-22T12:14:08.863Z,18.8
2018-06-22T12:15:48.658Z,18.8
2018-06-22T12:16:39.009Z,18.9
2018-06-22T12:17:29.079Z,19
2018-06-22T12:18:19.125Z,19
2018-06-22T12:19:09.364Z,18.9
2018-06-22T12:19:59.279Z,18.8
2018-06-22T12:20:49.369Z,18.9
2018-06-22T12:21:39.124Z,19
2018-06-22T12:22:29.209Z,19.1
2018-06-22T12:23:18.968Z,19.1
2018-06-22T12:24:09.596Z,19.1
2018-06-22T12:24:59.638Z,19.2
2018-06-22T12:25:49.440Z,19.2
2018-06-22T12:26:39.490Z,19.2
2018-06-22T12:27:29.576Z,19.3
2018-06-22T12:28:19.910Z,19.3
2018-06-22T12:29:09.408Z,19.4
2018-06-22T12:30:00.102Z,19.4
2018-06-22T12:30:50.186Z,19.5
2018-06-22T12:31:39.910Z,19.5
2018-06-22T12:32:29.954Z,19.5
2018-06-22T12:33:19.773Z,19.6
2018-06-22T12:34:10.149Z,19.7
2018-06-22T12:35:00.161Z,19.8
2018-06-22T12:35:49.959Z,19.9
2018-06-22T12:36:40.276Z,20
2018-06-22T12:37:30.632Z,20
2018-06-22T12:38:20.728Z,19.9
2018-06-22T12:39:10.467Z,19.9
2018-06-22T12:40:00.809Z,19.8
2018-06-22T12:40:50.918Z,19.8
2018-06-22T12:41:40.662Z,19.9
2018-06-22T12:42:31.012Z,19.9
2018-06-22T12:43:21.150Z,19.9
2018-06-22T12:44:11.146Z,20.1
2018-06-22T12:45:01.546Z,20.1
2018-06-22T12:45:51.002Z,19.9
2018-06-22T12:46:41.362Z,19.9
2018-06-22T12:47:31.391Z,20
2018-06-22T12:48:20.922Z,20
2018-06-22T12:49:11.528Z,20
2018-06-22T12:50:01.335Z,20
2018-06-22T12:50:51.117Z,20.1
2018-06-22T12:51:41.167Z,20.2
2018-06-22T12:52:31.229Z,20.3
2018-06-22T12:53:21.617Z,20.2
2018-06-22T12:54:11.364Z,20.2
2018-06-22T12:55:02.060Z,20.3
2018-06-22T12:55:51.515Z,20.3
2018-06-22T12:56:41.375Z,20.3
2018-06-22T12:57:32.359Z,20.6
2018-06-22T12:58:22.241Z,20.6
2018-06-22T12:59:12.343Z,20.7
2018-06-22T13:00:02.133Z,20.7
2018-06-22T13:00:52.459Z,20.8
2018-06-22T13:01:42.539Z,21
2018-06-22T13:02:32.332Z,21.1
2018-06-22T13:03:22.078Z,21.1
2018-06-22T13:04:12.152Z,21.1
2018-06-22T13:05:02.801Z,21.1
2018-06-22T13:06:42.897Z,21.2
2018-06-22T13:07:32.943Z,21.3
2018-06-22T13:08:22.755Z,21.3
2018-06-22T13:09:12.918Z,21.3
2018-06-22T13:10:02.861Z,21.4
2018-06-22T13:10:53.254Z,21.3
2018-06-22T13:11:43.283Z,21.4
2018-06-22T13:12:33.489Z,21.4
2018-06-22T13:13:23.151Z,21.4
2018-06-22T13:14:13.193Z,21.4
2018-06-22T13:15:03.535Z,21.5
2018-06-22T13:15:53.575Z,21.6
2018-06-22T13:16:43.361Z,21.6
2018-06-22T13:17:33.435Z,21.8
2018-06-22T13:18:23.767Z,21.9
2018-06-22T13:19:13.858Z,21.9
2018-06-22T13:20:03.919Z,21.8
2018-06-22T13:20:53.683Z,21.7
2018-06-22T13:21:44.057Z,21.8
2018-06-22T13:22:33.275Z,21.7
2018-06-22T13:23:23.892Z,21.7
2018-06-22T13:24:14.267Z,21.6
2018-06-22T13:25:04.301Z,21.6
2018-06-22T13:25:54.348Z,21.4
2018-06-22T13:26:44.525Z,21.3
2018-06-22T13:27:34.474Z,21.4
2018-06-22T13:28:23.984Z,21.4
2018-06-22T13:29:14.592Z,21.5
2018-06-22T13:30:04.670Z,21.7
2018-06-22T13:30:54.907Z,21.9
2018-06-22T13:31:44.812Z,22.1
2018-06-22T13:32:34.033Z,22.1
2018-06-22T13:33:24.684Z,22
2018-06-22T13:34:14.992Z,21.9
2018-06-22T13:35:05.063Z,21.9
2018-06-22T13:35:55.117Z,22
2018-06-22T13:36:45.189Z,22.2
2018-06-22T13:37:35.261Z,22.3
2018-06-22T13:38:25.048Z,22.4
2018-06-22T13:39:14.836Z,22.5
2018-06-22T13:40:05.444Z,22.6
2018-06-22T13:40:55.250Z,22.8
2018-06-22T13:41:45.039Z,22.8
2018-06-22T13:42:35.647Z,22.9
2018-06-22T13:43:25.691Z,22.8
2018-06-22T13:44:15.778Z,22.9
2018-06-22T13:45:05.855Z,23.1
2018-06-22T13:45:55.901Z,23.4
2018-06-22T13:46:45.445Z,23.6
2018-06-22T13:47:35.763Z,23.5
2018-06-22T13:48:26.090Z,23.3
2018-06-22T13:49:16.174Z,23.4
2018-06-22T13:50:06.235Z,23.5
2018-06-22T13:50:55.738Z,23.7
2018-06-22T13:51:46.354Z,23.8
2018-06-22T13:52:36.455Z,23.7
2018-06-22T13:53:26.503Z,23.8
2018-06-22T13:54:16.283Z,23.8
2018-06-22T13:55:06.067Z,23.8
2018-06-22T13:55:56.415Z,23.8
2018-06-22T13:56:47.116Z,23.5
2018-06-22T13:57:37.088Z,23.1
2018-06-22T13:58:26.885Z,22.9
2018-06-22T13:59:16.665Z,22.8
2018-06-22T14:00:07.018Z,22.9
2018-06-22T14:00:56.839Z,23
2018-06-22T14:01:47.161Z,23.1
2018-06-22T14:02:36.928Z,23.1
2018-06-22T14:03:27.259Z,23.1
2018-06-22T14:04:17.381Z,23.2
2018-06-22T14:05:07.113Z,23.2
2018-06-22T14:05:57.207Z,23.2
2018-06-22T14:06:46.964Z,23.3
2018-06-22T14:07:37.045Z,23.3
2018-06-22T14:08:27.356Z,23.2
2018-06-22T14:09:17.994Z,23.2
2018-06-22T14:10:07.502Z,23
2018-06-22T14:10:57.588Z,22.9
2018-06-22T14:11:47.662Z,22.9
2018-06-22T14:12:37.484Z,22.8
2018-06-22T14:13:28.021Z,22.7
2018-06-22T14:14:18.112Z,22.8
2018-06-22T14:15:07.591Z,22.8
2018-06-22T14:15:58.220Z,22.8
2018-06-22T14:16:48.311Z,22.8
2018-06-22T14:17:38.355Z,22.8
2018-06-22T14:18:28.445Z,22.7
2018-06-22T14:19:18.480Z,22.5
2018-06-22T14:20:08.931Z,22.5
2018-06-22T14:20:58.623Z,22.5
2018-06-22T14:21:48.150Z,22.4
2018-06-22T14:22:38.191Z,22.4
2018-06-22T14:23:28.527Z,22.4
2018-06-22T14:24:18.328Z,22.4
2018-06-22T14:25:08.938Z,22.4
2018-06-22T14:25:58.996Z,22.4
2018-06-22T14:26:49.075Z,22.4
2018-06-22T14:27:38.847Z,22.7
2018-06-22T14:28:28.936Z,22.9
2018-06-22T14:29:19.311Z,23.1
2018-06-22T14:30:09.337Z,23.1
2018-06-22T14:30:59.741Z,23
2018-06-22T14:31:49.472Z,23.1
2018-06-22T14:32:39.505Z,23.2
2018-06-22T14:33:29.317Z,23.3
2018-06-22T14:34:19.357Z,23.4
2018-06-22T14:35:09.454Z,23.6
2018-06-22T14:35:59.497Z,23.6
2018-06-22T14:36:49.857Z,23.7
2018-06-22T14:37:39.345Z,23.9
2018-06-22T14:38:29.443Z,24.2
2018-06-22T14:39:19.768Z,24.3
2018-06-22T14:40:10.091Z,24.6
2018-06-22T14:41:00.168Z,24.6
2018-06-22T14:41:49.707Z,24.8
2018-06-22T14:42:40.017Z,24.7
2018-06-22T14:43:31.254Z,24.7
2018-06-22T14:44:20.453Z,24.5
2018-06-22T14:45:10.500Z,24.2
2018-06-22T14:46:00.298Z,24.4
2018-06-22T14:46:50.429Z,24.4
2018-06-22T14:47:40.419Z,24.3
2018-06-22T14:48:30.261Z,24.6
2018-06-22T14:49:20.254Z,24.7
2018-06-22T14:50:10.498Z,24.7
2018-06-22T14:51:00.417Z,24.8
2018-06-22T14:51:51.024Z,24.8
2018-06-22T14:52:41.064Z,24.8
2018-06-22T14:53:30.302Z,24.5
2018-06-22T14:54:20.914Z,24.4
2018-06-22T14:55:10.699Z,24.3